Time;durP1;ratioP1;P1;durP2;ratioP2;P2;SDS_P1;SDS_P2;PMS_P1;PMS_P2;Temp;Humidity;BMP_temperature;BMP_pressure;BME280_temperature;BME280_humidity;BME280_pressure;Samples;Min_cycle;Max_cycle;Signal;HPM_P1;HPM_P2
2021/10/03 00:00:13;;;;;;;5.60;5.20;;;14.70;99.90;;;15.62;75.10;97069.53;5209800;28;20201;-56
2021/10/03 00:02:51;;;;;;;5.22;4.82;;;14.70;99.90;;;15.61;75.48;97067.81;5201933;28;20240;-61
2021/10/03 00:05:25;;;;;;;6.03;5.55;;;14.70;99.90;;;15.61;75.86;97062.66;5207179;28;20276;-54
2021/10/03 00:07:59;;;;;;;5.70;5.30;;;14.60;99.90;;;15.56;76.44;97064.25;5202387;28;20585;-57
2021/10/03 00:10:33;;;;;;;5.63;5.13;;;14.50;99.90;;;15.40;77.29;97080.16;5196840;28;20477;-57
2021/10/03 00:13:06;;;;;;;6.32;5.72;;;14.40;99.90;;;15.32;77.81;97079.97;5203953;28;20226;-61
2021/10/03 00:15:43;;;;;;;6.50;6.00;;;14.40;99.90;;;15.29;77.77;97070.44;5204108;28;20212;-56
2021/10/03 00:18:16;;;;;;;6.35;5.53;;;14.30;99.90;;;15.33;78.24;97071.41;5201064;28;20348;-57
2021/10/03 00:20:49;;;;;;;6.15;5.53;;;14.30;99.90;;;15.26;77.99;97064.38;5204054;28;20228;-62
2021/10/03 00:23:25;;;;;;;5.57;5.07;;;14.40;99.90;;;15.33;76.64;97061.09;5203883;28;20312;-61
2021/10/03 00:25:58;;;;;;;5.22;4.82;;;14.40;99.90;;;15.32;76.85;97065.38;5202934;28;20221;-60
2021/10/03 00:28:31;;;;;;;5.38;4.90;;;14.40;99.90;;;15.33;76.38;97061.97;5203981;28;20289;-62
2021/10/03 00:31:04;;;;;;;5.53;5.10;;;14.40;99.90;;;15.36;75.15;97052.59;5217195;28;20221;-60
2021/10/03 00:33:37;;;;;;;4.95;4.30;;;14.50;99.90;;;15.38;74.27;97058.66;5209126;28;20656;-61
2021/10/03 00:36:11;;;;;;;5.32;4.88;;;14.50;99.90;;;15.60;74.24;97060.94;5205741;28;20204;-61
2021/10/03 00:38:46;;;;;;;5.80;5.30;;;14.60;99.90;;;15.57;75.35;97060.84;5208848;28;20193;-53
2021/10/03 00:41:19;;;;;;;6.10;5.60;;;14.60;99.90;;;15.49;77.37;97052.06;5216824;28;20312;-59
2021/10/03 00:43:52;;;;;;;5.65;5.15;;;14.50;99.90;;;15.38;77.33;97063.81;5213593;28;20201;-62
2021/10/03 00:46:26;;;;;;;6.10;5.50;;;14.50;99.90;;;15.43;77.52;97059.66;5202299;28;20219;-62
2021/10/03 00:48:59;;;;;;;6.18;5.68;;;14.40;99.90;;;15.36;76.98;97048.28;5206547;28;20197;-62
2021/10/03 00:51:32;;;;;;;7.60;5.80;;;14.30;99.90;;;15.29;78.20;97036.97;5210314;28;20232;-62
2021/10/03 00:54:07;;;;;;;6.28;5.78;;;14.30;99.90;;;15.26;78.74;97046.34;5206391;28;20194;-57
2021/10/03 00:56:40;;;;;;;5.95;5.53;;;14.30;99.90;;;15.24;78.78;97051.44;5213127;28;20197;-61
2021/10/03 00:59:13;;;;;;;6.28;5.78;;;14.30;99.90;;;15.23;78.77;97044.56;5206165;28;20288;-60
2021/10/03 01:01:47;;;;;;;5.80;5.40;;;14.30;99.90;;;15.37;78.33;97059.50;5203761;28;20234;-61
2021/10/03 01:04:20;;;;;;;6.68;5.90;;;14.20;99.90;;;15.33;77.89;97036.22;5205875;28;20209;-62
2021/10/03 01:06:53;;;;;;;6.40;5.80;;;14.20;99.90;;;15.15;78.77;97047.75;5207581;28;20288;-62
2021/10/03 01:09:28;;;;;;;6.15;5.55;;;14.20;99.90;;;15.11;79.15;97054.53;5210797;28;20292;-56
2021/10/03 01:12:01;;;;;;;6.05;5.60;;;14.10;99.90;;;15.08;79.46;97044.16;5210273;28;20668;-60
2021/10/03 01:14:34;;;;;;;5.78;5.28;;;14.10;99.90;;;15.06;79.58;97053.53;5208432;28;20206;-62
2021/10/03 01:17:07;;;;;;;6.40;5.90;;;14.10;99.90;;;15.02;79.37;97041.41;5210140;28;20308;-60
2021/10/03 01:19:40;;;;;;;5.70;5.30;;;14.00;99.90;;;14.98;80.00;97052.47;5207518;28;20565;-62
2021/10/03 01:22:15;;;;;;;5.85;5.35;;;14.00;99.90;;;14.91;79.59;97048.88;5205658;28;20224;-61
2021/10/03 01:24:48;;;;;;;6.40;5.80;;;13.90;99.90;;;14.82;79.63;97041.78;5205393;28;20228;-62
2021/10/03 01:27:21;;;;;;;5.97;5.47;;;13.90;99.90;;;14.81;80.09;97050.31;5211513;28;20204;-58
2021/10/03 01:29:54;;;;;;;6.00;5.50;;;13.90;99.90;;;14.81;79.10;97044.28;5206723;28;20198;-58
2021/10/03 01:32:28;;;;;;;5.57;5.07;;;13.90;99.90;;;14.81;78.63;97036.56;5210692;28;20225;-55
2021/10/03 01:35:01;;;;;;;5.90;5.35;;;13.90;99.90;;;14.78;78.65;97046.78;5205733;28;20190;-59
2021/10/03 01:37:36;;;;;;;6.07;5.57;;;13.90;99.90;;;14.82;78.17;97036.63;5206532;28;20259;-58
2021/10/03 01:40:12;;;;;;;5.85;5.35;;;13.90;99.90;;;14.83;79.15;97038.34;5206351;28;20193;-61
2021/10/03 01:42:45;;;;;;;6.03;5.32;;;13.90;99.90;;;14.74;80.73;97043.25;5206026;28;20225;-57
2021/10/03 01:45:21;;;;;;;5.80;5.18;;;13.80;99.90;;;14.70;80.65;97025.97;5205368;28;20229;-61
2021/10/03 01:48:08;;;;;;;5.00;4.60;;;13.80;99.90;;;14.68;78.87;97037.06;5205747;28;20637;-62
2021/10/03 01:50:45;;;;;;;5.20;4.80;;;13.80;99.90;;;14.73;78.26;97031.22;5207306;28;20198;-55
2021/10/03 01:53:22;;;;;;;5.22;4.78;;;13.80;99.90;;;14.82;78.49;97018.63;5213706;28;20569;-61
2021/10/03 01:55:57;;;;;;;4.90;4.50;;;13.90;99.90;;;14.84;78.80;97019.50;5222904;28;20201;-62
2021/10/03 01:58:33;;;;;;;5.05;4.70;;;13.90;99.90;;;14.85;79.30;97016.13;5208479;28;20197;-60
2021/10/03 02:03:39;;;;;;;4.53;4.22;;;13.90;99.90;;;14.87;80.01;97009.28;5203630;28;20209;-55
2021/10/03 02:06:13;;;;;;;5.18;4.70;;;13.90;99.90;;;14.93;79.74;97006.00;5204787;28;20218;-62
2021/10/03 02:08:52;;;;;;;5.03;4.63;;;13.90;99.90;;;14.84;80.81;97006.66;5204095;28;20209;-57
2021/10/03 02:11:28;;;;;;;5.13;4.72;;;13.90;99.90;;;14.87;80.56;97011.00;5205484;28;20664;-59
2021/10/03 02:14:01;;;;;;;4.60;4.30;;;13.90;99.90;;;14.86;79.66;97012.72;5177267;28;20301;-60
2021/10/03 02:16:35;;;;;;;5.20;4.80;;;13.90;99.90;;;14.83;79.56;97004.03;5183663;28;20205;-58
2021/10/03 02:19:09;;;;;;;5.25;4.85;;;13.80;99.90;;;14.80;80.31;97004.84;5180123;28;20285;-60
2021/10/03 02:21:42;;;;;;;5.97;4.88;;;13.90;99.90;;;14.76;80.00;97005.56;5177682;28;20229;-61
2021/10/03 02:24:16;;;;;;;4.70;4.20;;;13.90;99.90;;;14.79;79.37;96997.97;5181627;28;20199;-57
2021/10/03 02:26:49;;;;;;;4.30;3.75;;;13.90;99.90;;;14.83;79.66;96992.06;5188209;28;20225;-58
2021/10/03 02:29:22;;;;;;;4.60;4.20;;;13.90;99.90;;;14.85;79.45;96990.41;5178266;28;20202;-62
2021/10/03 02:31:56;;;;;;;4.72;4.22;;;14.00;99.90;;;14.87;79.51;96978.41;5174821;28;20226;-62
2021/10/03 02:34:29;;;;;;;4.88;4.40;;;14.00;99.90;;;14.85;79.74;96972.38;5184495;28;20635;-62
2021/10/03 02:37:02;;;;;;;4.47;4.18;;;14.00;99.90;;;14.92;79.67;96972.53;5173012;28;20194;-54
2021/10/03 02:39:36;;;;;;;4.70;4.40;;;13.90;99.90;;;14.90;80.86;96984.47;5176279;28;20212;-59
2021/10/03 02:42:10;;;;;;;4.80;4.40;;;14.00;99.90;;;14.85;80.77;96979.22;5183407;28;20222;-57
2021/10/03 02:44:43;;;;;;;4.93;4.53;;;13.90;99.90;;;14.85;80.40;96976.63;5176100;28;20213;-61
2021/10/03 02:47:16;;;;;;;5.00;4.60;;;13.90;99.90;;;14.85;80.34;96961.19;5173098;28;20219;-58
2021/10/03 02:49:49;;;;;;;4.38;4.07;;;13.90;99.90;;;14.77;81.43;96963.59;5182634;28;20236;-63
2021/10/03 02:52:23;;;;;;;4.70;4.40;;;13.80;99.90;;;14.68;81.31;96965.94;5170415;28;20305;-62
2021/10/03 02:54:57;;;;;;;4.80;4.40;;;13.70;99.90;;;14.64;81.63;96961.53;5171288;28;20196;-62
2021/10/03 02:57:30;;;;;;;5.07;4.78;;;13.70;99.90;;;14.60;81.20;96963.16;5171638;28;20205;-57
2021/10/03 03:00:07;;;;;;;5.35;4.75;;;13.70;99.90;;;14.64;81.00;96956.38;5172868;28;20204;-56
2021/10/03 03:02:40;;;;;;;4.78;4.35;;;13.70;99.90;;;14.58;81.02;96957.06;5171759;28;20698;-62
2021/10/03 03:05:14;;;;;;;5.20;4.70;;;13.70;99.90;;;14.59;79.26;96965.66;5176990;28;20198;-58
2021/10/03 03:07:47;;;;;;;4.75;4.35;;;13.60;99.90;;;14.56;79.14;96966.44;5173370;28;20209;-62
2021/10/03 03:10:21;;;;;;;4.60;4.18;;;13.70;99.90;;;14.57;78.35;96962.19;5175896;28;20579;-63
2021/10/03 03:12:54;;;;;;;4.78;4.40;;;13.70;99.90;;;14.70;78.67;96953.97;5178696;28;20228;-63
2021/10/03 03:15:28;;;;;;;4.50;4.20;;;13.70;99.90;;;14.60;79.55;96958.00;5184018;28;20205;-62
2021/10/03 03:18:01;;;;;;;4.63;4.30;;;13.70;99.90;;;14.51;81.49;96952.59;5180835;28;20627;-57
2021/10/03 03:20:34;;;;;;;4.80;4.40;;;13.70;99.90;;;14.47;80.89;96957.59;5181565;28;20303;-57
2021/10/03 03:23:07;;;;;;;5.00;4.50;;;13.60;99.90;;;14.45;80.50;96947.28;5175315;28;20744;-62
2021/10/03 03:25:43;;;;;;;5.05;4.57;;;13.60;99.90;;;14.58;80.40;96943.34;5187503;28;20201;-62
2021/10/03 03:28:16;;;;;;;4.80;4.40;;;13.70;99.90;;;14.53;79.30;96944.94;5177688;28;20204;-58
2021/10/03 03:30:49;;;;;;;4.10;3.80;;;13.60;99.90;;;14.54;80.02;96949.25;5176277;28;20230;-63
2021/10/03 03:33:22;;;;;;;4.50;4.10;;;13.70;99.90;;;14.52;79.67;96938.06;5174045;28;20697;-60
2021/10/03 03:35:56;;;;;;;4.43;4.13;;;13.60;99.90;;;14.56;79.91;96942.44;5174148;28;20195;-62
2021/10/03 03:38:35;;;;;;;4.57;4.28;;;13.70;99.90;;;14.71;79.23;96940.28;5172724;28;20206;-61
2021/10/03 03:41:10;;;;;;;4.57;4.18;;;13.70;99.90;;;14.67;79.07;96935.00;5176007;28;20290;-62
2021/10/03 03:43:44;;;;;;;5.07;4.68;;;13.70;99.90;;;14.61;79.34;96943.44;5172823;28;20578;-62
2021/10/03 03:46:18;;;;;;;4.63;4.32;;;13.60;99.90;;;14.64;79.87;96939.22;5177485;28;20234;-63
2021/10/03 03:48:51;;;;;;;4.53;4.22;;;13.60;99.90;;;14.57;80.69;96942.50;5177439;28;20203;-62
2021/10/03 03:51:24;;;;;;;4.50;4.20;;;13.60;99.90;;;14.46;80.43;96932.72;5177503;28;20223;-62
2021/10/03 03:53:57;;;;;;;4.40;4.07;;;13.60;99.90;;;14.38;80.83;96929.94;5174645;28;20203;-63
2021/10/03 03:56:32;;;;;;;4.25;3.92;;;13.50;99.90;;;14.40;81.20;96939.44;5176642;28;20588;-62
2021/10/03 03:59:05;;;;;;;4.82;4.43;;;13.50;99.90;;;14.41;80.91;96930.00;5176884;28;20198;-63
2021/10/03 04:01:39;;;;;;;4.43;4.07;;;13.50;99.90;;;14.33;81.77;96929.78;5174444;28;20227;-61
2021/10/03 04:04:12;;;;;;;5.03;4.57;;;13.50;99.90;;;14.29;80.70;96924.53;5170000;28;20836;-63
2021/10/03 04:06:45;;;;;;;5.47;4.70;;;13.40;99.90;;;14.30;81.24;96922.00;5175645;28;20313;-60
2021/10/03 04:09:18;;;;;;;5.28;4.60;;;13.40;99.90;;;14.29;80.49;96924.53;5169037;28;20213;-62
2021/10/03 04:11:53;;;;;;;4.63;4.25;;;13.40;99.90;;;14.28;79.00;96928.81;5172142;28;20315;-62
2021/10/03 04:14:26;;;;;;;4.78;4.40;;;13.40;99.90;;;14.30;78.86;96934.84;5171117;28;20210;-62
2021/10/03 04:17:01;;;;;;;4.63;3.95;;;13.40;99.90;;;14.30;78.39;96924.56;5172188;28;20203;-62
2021/10/03 04:19:34;;;;;;;4.93;4.30;;;13.50;99.90;;;14.34;78.46;96915.25;5174045;28;20682;-62
2021/10/03 04:22:07;;;;;;;4.80;3.90;;;13.50;99.90;;;14.33;79.54;96913.50;5175951;28;20219;-62
2021/10/03 04:24:40;;;;;;;5.68;4.10;;;13.50;99.90;;;14.32;79.02;96912.66;5173000;28;20205;-62
2021/10/03 04:27:15;;;;;;;4.55;4.00;;;13.50;99.90;;;14.38;78.51;96915.38;5169600;28;20223;-61
2021/10/03 04:29:48;;;;;;;4.30;4.00;;;13.50;99.90;;;14.39;79.31;96903.38;5167507;28;20194;-62
2021/10/03 04:32:21;;;;;;;4.80;4.40;;;13.40;99.90;;;14.40;78.97;96915.44;5171855;28;20222;-62
2021/10/03 04:34:54;;;;;;;4.45;4.15;;;13.50;99.90;;;14.36;79.26;96911.88;5174466;28;20205;-61
2021/10/03 04:37:28;;;;;;;4.65;4.30;;;13.50;99.90;;;14.37;78.82;96918.78;5178713;28;20201;-62
2021/10/03 04:40:01;;;;;;;4.63;4.22;;;13.50;99.90;;;14.41;78.33;96920.59;5183301;28;20293;-61
2021/10/03 04:42:35;;;;;;;7.63;4.82;;;13.50;99.90;;;14.37;78.83;96905.94;5188867;28;20712;-62
2021/10/03 04:45:10;;;;;;;4.70;4.28;;;13.50;99.90;;;14.38;77.13;96919.66;5192379;28;20220;-61
2021/10/03 04:47:43;;;;;;;6.30;5.80;;;13.50;99.90;;;14.39;77.96;96906.84;5187106;28;20242;-61
2021/10/03 04:50:17;;;;;;;5.40;5.00;;;13.50;99.90;;;14.34;78.24;96912.69;5184001;28;20205;-62
2021/10/03 04:52:50;;;;;;;5.47;5.07;;;13.50;99.90;;;14.37;77.56;96905.94;5178600;28;20218;-61
2021/10/03 04:55:23;;;;;;;4.97;4.50;;;13.50;99.90;;;14.38;78.61;96899.09;5189098;28;20705;-62
2021/10/03 04:57:57;;;;;;;4.57;4.20;;;13.50;99.90;;;14.50;77.28;96908.81;5175766;28;20191;-62
2021/10/03 05:00:31;;;;;;;4.95;4.65;;;13.60;99.90;;;14.43;78.18;96902.66;5179771;28;20292;-61
2021/10/03 05:03:04;;;;;;;4.45;4.15;;;13.60;99.90;;;14.55;77.50;96887.56;5181563;28;20226;-62
2021/10/03 05:05:37;;;;;;;4.55;4.20;;;13.60;99.90;;;14.47;77.13;96898.44;5178186;28;20293;-61
2021/10/03 05:08:12;;;;;;;4.80;4.40;;;13.60;99.90;;;14.46;75.84;96894.16;5179259;28;20761;-61
2021/10/03 05:10:48;;;;;;;4.50;4.10;;;13.60;99.90;;;14.43;75.81;96885.53;5183582;28;20210;-60
2021/10/03 05:13:22;;;;;;;4.45;4.10;;;13.60;99.90;;;14.55;73.88;96891.84;5179235;28;20229;-60
2021/10/03 05:15:56;;;;;;;4.50;4.20;;;13.70;99.90;;;14.59;74.03;96878.22;5180443;28;20253;-60
2021/10/03 05:18:29;;;;;;;4.63;4.22;;;13.70;99.90;;;14.63;73.44;96900.63;5188970;28;20281;-62
2021/10/03 05:21:02;;;;;;;4.47;4.07;;;13.80;99.90;;;14.77;74.36;96889.00;5178713;28;20289;-61
2021/10/03 05:23:36;;;;;;;4.78;4.38;;;13.90;99.90;;;14.62;74.73;96884.34;5177738;28;20578;-61
2021/10/03 05:26:09;;;;;;;4.43;4.03;;;13.80;99.90;;;14.66;73.01;96894.69;5179105;28;20203;-62
2021/10/03 05:28:44;;;;;;;4.10;3.80;;;13.90;99.90;;;14.67;74.23;96896.44;5183993;28;20604;-61
2021/10/03 05:31:17;;;;;;;4.35;4.10;;;13.80;99.90;;;14.69;72.57;96885.34;5182739;28;20194;-61
2021/10/03 05:33:50;;;;;;;4.55;4.25;;;13.90;99.90;;;14.81;72.51;96884.78;5175449;28;20217;-62
2021/10/03 05:36:24;;;;;;;4.20;3.90;;;14.00;99.90;;;14.93;72.38;96889.34;5179011;28;20204;-62
2021/10/03 05:39:00;;;;;;;5.13;4.70;;;14.10;99.90;;;15.20;70.53;96873.72;5174414;28;20219;-62
2021/10/03 05:41:33;;;;;;;4.00;3.72;;;14.30;99.90;;;15.24;69.87;96883.22;5180175;28;20296;-61
2021/10/03 05:44:07;;;;;;;4.45;4.10;;;14.40;99.90;;;15.22;69.52;96883.22;5179468;28;20210;-62
2021/10/03 05:46:40;;;;;;;4.28;3.90;;;14.50;99.90;;;15.29;70.19;96895.38;5180345;28;20203;-61
2021/10/03 05:49:13;;;;;;;4.53;4.18;;;14.60;99.90;;;15.36;70.70;96893.78;5169838;28;20191;-61
2021/10/03 05:51:46;;;;;;;5.32;4.65;;;14.60;99.90;;;15.48;71.28;96895.78;5170010;28;20222;-62
2021/10/03 05:54:19;;;;;;;4.10;3.88;;;14.70;99.90;;;15.45;70.92;96891.44;5170047;28;20210;-61
2021/10/03 05:56:52;;;;;;;5.25;4.18;;;14.60;99.90;;;15.55;71.03;96905.41;5176794;28;20210;-62
2021/10/03 05:59:27;;;;;;;4.68;4.28;;;14.70;99.90;;;15.64;70.85;96897.84;5173587;28;20195;-59
2021/10/03 06:02:00;;;;;;;4.68;4.28;;;14.80;99.90;;;15.72;68.75;96896.34;5174451;28;20226;-60
2021/10/03 06:04:33;;;;;;;4.30;4.00;;;15.00;99.90;;;15.82;68.44;96904.28;5171967;28;20213;-57
2021/10/03 06:07:06;;;;;;;4.75;4.32;;;15.10;99.90;;;15.90;69.13;96905.31;5174440;28;20207;-61
2021/10/03 06:09:39;;;;;;;4.45;4.15;;;15.10;99.90;;;16.08;66.95;96900.53;5167407;28;20207;-57
2021/10/03 06:12:13;;;;;;;4.40;4.05;;;15.30;99.90;;;16.33;64.35;96901.88;5171285;28;20733;-62
2021/10/03 06:14:47;;;;;;;4.47;4.07;;;15.60;99.90;;;16.40;65.09;96901.16;5165013;28;20199;-54
2021/10/03 06:17:21;;;;;;;4.35;4.05;;;15.70;99.90;;;16.56;64.38;96894.53;5167773;28;20238;-62
2021/10/03 06:19:54;;;;;;;3.80;3.60;;;15.80;99.90;;;16.69;63.98;96900.81;5182987;28;20233;-62
2021/10/03 06:22:27;;;;;;;4.07;3.78;;;15.90;99.90;;;16.80;64.65;96899.31;5173907;28;20708;-56
2021/10/03 06:25:00;;;;;;;4.35;3.95;;;16.00;99.90;;;16.92;63.88;96896.06;5183006;28;20213;-61
2021/10/03 06:27:33;;;;;;;4.00;3.70;;;16.10;99.90;;;17.05;63.67;96891.97;5176376;28;20223;-60
2021/10/03 06:30:09;;;;;;;4.28;3.88;;;16.20;99.90;;;17.10;65.62;96898.06;5177226;28;20198;-62
2021/10/03 06:32:42;;;;;;;3.80;3.60;;;16.30;99.90;;;17.25;65.17;96900.03;5187122;28;20221;-61
2021/10/03 06:35:15;;;;;;;3.90;3.70;;;16.40;99.90;;;17.40;63.25;96882.19;5180346;28;20205;-54
2021/10/03 06:37:48;;;;;;;4.50;4.13;;;16.60;99.90;;;17.64;64.27;96896.28;5177601;28;20283;-61
2021/10/03 06:40:22;;;;;;;3.97;3.67;;;16.70;99.90;;;17.84;61.08;96883.66;5179394;28;20674;-62
2021/10/03 06:42:56;;;;;;;4.07;3.78;;;17.00;99.90;;;18.20;58.42;96884.09;5176318;28;20218;-60
2021/10/03 06:45:31;;;;;;;3.78;3.50;;;17.40;99.90;;;18.26;58.90;96896.25;5178344;28;20214;-62
2021/10/03 06:48:05;;;;;;;3.97;3.67;;;17.50;99.90;;;18.37;58.67;96892.06;5182222;28;20217;-59
2021/10/03 06:50:38;;;;;;;3.78;3.58;;;17.50;99.90;;;18.35;59.39;96891.16;5177055;28;20211;-60
2021/10/03 06:53:11;;;;;;;4.25;3.67;;;17.50;99.90;;;18.35;60.34;96886.00;5179887;28;20237;-62
2021/10/03 06:55:44;;;;;;;4.15;3.85;;;17.50;99.90;;;18.35;60.04;96887.72;5174737;28;20203;-63
2021/10/03 06:58:17;;;;;;;3.78;3.47;;;17.50;99.90;;;18.39;60.41;96892.06;5180872;28;20191;-63
2021/10/03 07:00:52;;;;;;;4.10;3.70;;;17.60;99.90;;;18.39;62.40;96890.34;5174669;28;20286;-62
2021/10/03 07:03:25;;;;;;;3.75;3.45;;;17.60;99.90;;;18.50;59.54;96882.69;5172511;28;20322;-62
2021/10/03 07:05:58;;;;;;;4.18;3.85;;;17.60;99.90;;;18.54;59.91;96892.25;5174641;28;20199;-63
2021/10/03 07:08:32;;;;;;;3.70;3.47;;;17.70;99.90;;;18.66;57.67;96901.84;5183322;28;20229;-63
2021/10/03 07:11:05;;;;;;;3.55;3.35;;;17.80;99.90;;;18.64;58.16;96900.94;5174862;28;20211;-62
2021/10/03 07:13:38;;;;;;;3.80;3.50;;;17.80;99.90;;;18.73;58.70;96889.81;5174715;28;20207;-60
2021/10/03 07:16:13;;;;;;;3.58;3.28;;;17.90;99.90;;;18.79;57.49;96900.25;5174218;28;20256;-63
2021/10/03 07:18:46;;;;;;;3.85;3.55;;;17.90;99.90;;;18.93;56.44;96902.97;5171235;28;20202;-60
2021/10/03 07:21:20;;;;;;;3.53;3.33;;;18.10;99.90;;;19.35;54.26;96897.28;5175913;28;20253;-62
2021/10/03 07:23:53;;;;;;;3.88;3.50;;;18.30;99.90;;;19.34;54.84;96906.78;5173897;28;20742;-62
2021/10/03 07:26:26;;;;;;;3.70;3.40;;;18.50;99.90;;;19.49;53.95;96905.16;5177155;28;20205;-62
2021/10/03 07:28:59;;;;;;;3.70;3.40;;;18.60;99.90;;;19.63;53.99;96920.75;5170419;28;20226;-61
2021/10/03 07:31:34;;;;;;;3.95;3.65;;;18.70;99.90;;;19.67;55.60;96919.97;5175495;28;20234;-62
2021/10/03 07:34:07;;;;;;;3.83;3.63;;;18.80;99.90;;;19.70;53.13;96915.66;5176726;28;20201;-63
2021/10/03 07:36:41;;;;;;;4.18;3.88;;;19.00;99.60;;;19.80;53.53;96911.38;5175627;28;20205;-58
2021/10/03 07:39:14;;;;;;;4.10;3.80;;;19.10;99.90;;;19.80;52.09;96909.69;5175632;28;20207;-61
2021/10/03 07:41:47;;;;;;;4.15;3.55;;;19.20;98.60;;;19.97;50.49;96911.47;5180972;28;20220;-61
2021/10/03 07:44:20;;;;;;;3.78;3.50;;;19.30;97.70;;;20.23;50.00;96904.69;5173674;28;20286;-63
2021/10/03 07:46:55;;;;;;;3.90;3.60;;;19.60;97.30;;;20.17;51.49;96919.34;5175318;28;20198;-62
2021/10/03 07:49:28;;;;;;;4.22;3.78;;;19.60;98.10;;;20.25;51.76;96910.72;5183531;28;20617;-61
2021/10/03 07:52:01;;;;;;;4.93;4.53;;;19.60;98.30;;;20.27;52.38;96913.34;5168310;28;20410;-59
2021/10/03 07:54:34;;;;;;;4.05;3.75;;;19.60;99.10;;;20.28;51.90;96909.00;5173520;28;20215;-57
2021/10/03 07:57:07;;;;;;;6.03;3.85;;;19.50;98.40;;;20.32;52.61;96916.81;5170256;28;20758;-57
2021/10/03 07:59:41;;;;;;;3.50;3.20;;;19.60;99.40;;;20.32;53.17;96906.44;5171007;28;20194;-58
2021/10/03 08:02:15;;;;;;;3.67;3.38;;;19.50;99.80;;;20.36;50.86;96917.69;5168496;28;20594;-61
2021/10/03 08:04:49;;;;;;;3.88;3.58;;;19.60;97.90;;;20.61;48.97;96914.34;5167440;28;20228;-59
2021/10/03 08:07:22;;;;;;;4.65;4.03;;;19.80;96.80;;;20.56;50.17;96917.78;5172019;28;20662;-62
2021/10/03 08:09:55;;;;;;;3.63;3.33;;;19.70;97.30;;;20.47;50.19;96926.38;5174889;28;20231;-58
2021/10/03 08:12:29;;;;;;;3.97;3.58;;;19.70;97.60;;;20.48;50.13;96909.94;5166576;28;20684;-59
2021/10/03 08:15:02;;;;;;;3.55;3.25;;;19.60;97.90;;;20.36;49.89;96925.47;5171320;28;20211;-58
2021/10/03 08:17:37;;;;;;;3.50;3.30;;;19.60;96.90;;;20.37;51.71;96922.00;5176849;28;20212;-57
2021/10/03 08:20:11;;;;;;;3.80;3.60;;;19.50;98.70;;;20.38;52.65;96913.38;5189295;28;20208;-55
2021/10/03 08:22:44;;;;;;;3.92;3.63;;;19.50;99.20;;;20.34;53.67;96919.41;5187867;28;20230;-58
2021/10/03 08:25:17;;;;;;;3.95;3.67;;;19.40;99.40;;;20.33;53.58;96917.69;5182877;28;20208;-57
2021/10/03 08:27:50;;;;;;;3.60;3.20;;;19.40;99.60;;;20.31;54.32;96914.22;5189420;28;20289;-60
2021/10/03 08:30:24;;;;;;;3.45;3.15;;;19.30;99.90;;;20.37;55.67;96922.00;5183181;28;20226;-58
2021/10/03 08:32:58;;;;;;;3.50;3.20;;;19.30;99.90;;;20.29;56.06;96926.31;5186532;28;20225;-62
2021/10/03 08:35:32;;;;;;;3.45;3.25;;;19.30;99.90;;;20.34;52.75;96925.47;5181691;28;20216;-61
2021/10/03 08:38:05;;;;;;;3.78;3.47;;;19.30;99.40;;;20.22;53.46;96910.72;5177941;28;20229;-63
2021/10/03 08:40:38;;;;;;;8.15;3.80;;;19.30;99.50;;;20.20;54.23;96911.56;5181633;28;20203;-59
2021/10/03 08:43:11;;;;;;;3.80;3.50;;;19.30;99.90;;;20.19;54.09;96909.84;5181214;28;20600;-62
2021/10/03 08:45:46;;;;;;;3.85;3.55;;;19.30;99.90;;;20.28;51.67;96903.81;5183579;28;20376;-59
2021/10/03 08:48:20;;;;;;;3.90;3.60;;;19.30;98.30;;;20.28;52.03;96911.59;5180359;28;20228;-61
2021/10/03 08:50:54;;;;;;;4.07;3.70;;;19.30;98.50;;;20.29;51.05;96898.66;5181524;28;20204;-60
2021/10/03 08:53:27;;;;;;;3.63;3.33;;;19.40;98.00;;;20.28;51.65;96912.47;5172430;28;20219;-62
2021/10/03 08:56:00;;;;;;;3.38;3.17;;;19.40;98.60;;;20.27;52.80;96907.28;5176473;28;20205;-58
2021/10/03 08:58:33;;;;;;;3.63;3.40;;;19.30;99.50;;;20.27;52.91;96889.13;5178743;28;20199;-58
2021/10/03 09:01:10;;;;;;;3.45;3.15;;;19.30;99.20;;;20.45;52.53;96886.56;5177748;28;20286;-58
2021/10/03 09:03:45;;;;;;;3.58;3.28;;;19.40;99.00;;;20.36;52.14;96878.75;5181832;28;20202;-59
2021/10/03 09:06:20;;;;;;;3.70;3.40;;;19.40;98.70;;;20.43;51.66;96890.88;5181043;28;20203;-62
2021/10/03 09:08:56;;;;;;;3.85;3.65;;;19.40;98.40;;;20.42;50.18;96879.63;5176475;28;20233;-62
2021/10/03 09:11:37;;;;;;;4.50;3.97;;;19.40;97.40;;;20.39;49.85;96891.75;5178350;28;20264;-60
2021/10/03 09:14:10;;;;;;;4.15;3.85;;;19.50;96.90;;;20.34;50.85;96899.50;5178136;28;20199;-59
2021/10/03 09:16:43;;;;;;;3.72;3.50;;;19.50;97.60;;;20.39;50.16;96896.94;5171323;28;20225;-59
2021/10/03 09:19:17;;;;;;;3.50;3.30;;;19.60;97.20;;;20.48;50.46;96896.94;5171069;28;20730;-62
2021/10/03 09:21:52;;;;;;;3.95;3.58;;;19.60;97.30;;;20.55;50.14;96898.75;5171703;28;20218;-63
2021/10/03 09:24:25;;;;;;;3.85;3.55;;;19.60;97.00;;;20.50;50.27;96890.03;5170435;28;20206;-62
2021/10/03 09:27:03;;;;;;;3.83;3.45;;;19.60;96.70;;;20.55;50.37;96896.16;5170514;28;20213;-63
2021/10/03 09:29:38;;;;;;;3.35;3.15;;;19.70;97.50;;;20.60;50.74;96890.94;5172128;28;20309;-63
2021/10/03 09:32:14;;;;;;;3.40;3.20;;;19.70;97.50;;;20.72;50.29;96900.50;5171245;28;20708;-61
2021/10/03 09:34:51;;;;;;;3.70;3.40;;;19.80;97.40;;;20.81;49.22;96897.94;5175237;28;20194;-62
2021/10/03 09:37:27;;;;;;;3.58;3.28;;;19.80;96.70;;;20.77;49.85;96903.97;5176211;28;20326;-63
2021/10/03 09:40:06;;;;;;;3.42;3.13;;;19.90;97.30;;;20.74;51.70;96909.16;5170024;28;20286;-61
2021/10/03 09:42:40;;;;;;;3.58;3.28;;;19.80;98.90;;;20.70;53.06;96908.28;5165507;28;20219;-62
2021/10/03 09:45:16;;;;;;;3.42;3.22;;;19.70;99.90;;;20.63;55.16;96907.44;5177957;28;20651;-63
2021/10/03 09:48:01;;;;;;;3.50;3.20;;;19.60;99.90;;;20.61;55.06;96919.53;5184492;28;20202;-60
2021/10/03 09:50:39;;;;;;;3.55;3.25;;;19.60;99.90;;;20.60;55.33;96910.03;5188836;28;20605;-63
2021/10/03 09:53:14;;;;;;;3.65;3.38;;;19.60;99.90;;;20.57;55.64;96901.34;5175461;28;20625;-62
2021/10/03 09:55:48;;;;;;;4.00;3.70;;;19.60;99.90;;;20.60;54.82;96915.22;5181480;28;20221;-61
2021/10/03 09:58:21;;;;;;;3.70;3.40;;;19.60;99.90;;;20.63;55.08;96912.63;5180858;28;20657;-60
2021/10/03 10:00:54;;;;;;;3.10;2.90;;;19.60;99.90;;;20.65;55.75;96905.69;5180070;28;20633;-62
2021/10/03 10:03:28;;;;;;;3.70;3.40;;;19.60;99.90;;;20.69;55.48;96920.41;5175143;28;20234;-62
2021/10/03 10:06:03;;;;;;;3.60;3.40;;;19.60;99.90;;;20.67;55.60;96919.53;5178528;28;20209;-63
2021/10/03 10:08:39;;;;;;;3.55;3.35;;;19.70;99.90;;;20.75;55.12;96910.91;5178378;28;20213;-62
2021/10/03 10:11:17;;;;;;;3.20;3.00;;;19.70;99.90;;;20.84;54.45;96908.31;5178396;28;20313;-62
2021/10/03 10:13:56;;;;;;;3.50;3.30;;;19.80;99.90;;;20.93;52.98;96911.78;5200370;22;20732;-58
2021/10/03 10:16:35;;;;;;;3.30;3.05;;;19.80;99.40;;;20.94;52.19;96891.84;5199525;28;20202;-59
2021/10/03 10:19:38;;;;;;;3.53;3.33;;;19.90;98.70;;;21.00;52.20;96899.66;5200585;28;20300;-58
2021/10/03 10:22:36;;;;;;;3.75;3.45;;;19.90;99.50;;;21.05;54.15;96895.34;5203360;28;20293;-56
2021/10/03 10:25:19;;;;;;;4.65;4.22;;;20.00;99.90;;;21.08;56.54;96894.47;5199111;28;20293;-58
2021/10/03 10:27:59;;;;;;;5.00;4.60;;;20.00;99.90;;;20.90;59.02;96901.38;5203156;28;20206;-58
2021/10/03 10:30:34;;;;;;;4.68;4.28;;;19.90;99.90;;;20.82;59.59;96897.91;5202633;28;20212;-59
2021/10/03 10:33:16;;;;;;;4.38;4.07;;;19.80;99.90;;;20.76;59.30;96897.06;5201454;28;20221;-55
2021/10/03 10:35:50;;;;;;;3.88;3.58;;;19.70;99.90;;;20.72;57.46;96897.88;5202507;28;20592;-55
2021/10/03 10:38:24;;;;;;;3.90;3.60;;;19.70;99.90;;;20.73;54.85;96891.84;5202528;28;20202;-55
2021/10/03 10:40:57;;;;;;;4.03;3.72;;;19.80;99.90;;;20.84;54.26;96903.13;5204157;28;20288;-60
2021/10/03 10:43:41;;;;;;;4.18;3.88;;;19.80;99.90;;;20.82;55.05;96899.66;5201514;28;20771;-57
2021/10/03 10:46:47;;;;;;;3.83;3.53;;;19.80;99.90;;;20.82;55.42;96891.84;5204599;28;20206;-58
2021/10/03 10:49:44;;;;;;;3.70;3.50;;;19.80;99.90;;;20.86;53.65;96898.78;5137344;28;20212;-58
2021/10/03 10:52:34;;;;;;;3.65;3.40;;;19.90;99.80;;;20.90;53.58;96888.41;5200265;28;20699;-57